createdAt,value
2019-05-17T00:01:54.006Z,97308.16
2019-05-17T00:04:26.981Z,97304.14
2019-05-17T00:06:59.621Z,97300.89
2019-05-17T00:09:32.919Z,97294.17
2019-05-17T00:12:07.509Z,97295.28
2019-05-17T00:14:39.908Z,97295.41
2019-05-17T00:17:12.650Z,97286.67
2019-05-17T00:19:46.466Z,97283.03
2019-05-17T00:22:19.587Z,97276.05
2019-05-17T00:24:51.750Z,97279.17
2019-05-17T00:27:26.361Z,97279.90
2019-05-17T00:29:58.136Z,97268.55
2019-05-17T00:32:30.260Z,97267.36
2019-05-17T00:35:02.389Z,97259.34
2019-05-17T00:37:37.013Z,97257.02
2019-05-17T00:40:10.218Z,97262.06
2019-05-17T00:42:42.671Z,97261.17
2019-05-17T00:45:17.299Z,97259.81
2019-05-17T00:47:50.080Z,97252.17
2019-05-17T00:50:22.448Z,97248.64
2019-05-17T00:52:56.644Z,97247.59
2019-05-17T00:55:28.932Z,97247.27
2019-05-17T00:58:01.545Z,97246.20
2019-05-17T01:00:37.248Z,97245.23
2019-05-17T01:03:08.709Z,97239.30
2019-05-17T01:05:40.999Z,97240.56
2019-05-17T01:08:13.150Z,97236.38
2019-05-17T01:10:47.377Z,97236.70
2019-05-17T01:13:19.514Z,97238.09
2019-05-17T01:15:52.086Z,97234.87
2019-05-17T01:18:26.923Z,97233.13
2019-05-17T01:20:59.142Z,97231.03
2019-05-17T01:23:31.876Z,97231.85
2019-05-17T01:26:04.086Z,97224.56
2019-05-17T01:28:36.461Z,97223.47
2019-05-17T01:31:09.048Z,97224.86
2019-05-17T01:33:41.627Z,97227.28
2019-05-17T01:36:14.094Z,97227.07
2019-05-17T01:38:46.886Z,97231.22
2019-05-17T01:41:19.455Z,97225.98
2019-05-17T01:43:51.706Z,97219.07
2019-05-17T01:46:26.443Z,97221.27
2019-05-17T01:48:59.485Z,97221.31
2019-05-17T01:51:31.739Z,97218.89
2019-05-17T01:54:04.028Z,97218.53
2019-05-17T01:56:37.085Z,97221.04
2019-05-17T01:59:09.917Z,97219.59
2019-05-17T02:01:44.261Z,97223.54
2019-05-17T02:04:17.394Z,97222.86
2019-05-17T02:06:49.668Z,97222.39
2019-05-17T02:09:34.933Z,97225.15
2019-05-17T02:11:57.147Z,97219.78
2019-05-17T02:14:29.319Z,97222.50
2019-05-17T02:17:01.443Z,97213.88
2019-05-17T02:19:33.573Z,97219.55
2019-05-17T02:22:07.467Z,97216.72
2019-05-17T02:24:40.220Z,97213.28
2019-05-17T02:27:13.204Z,97214.19
2019-05-17T02:29:45.889Z,97209.97
2019-05-17T02:32:18.423Z,97212.49
2019-05-17T02:34:52.968Z,97207.06
2019-05-17T02:37:24.475Z,97210.53
2019-05-17T02:40:02.797Z,97210.08
2019-05-17T02:42:33.267Z,97206.90
2019-05-17T02:45:06.450Z,97206.10
2019-05-17T02:47:38.917Z,97210.64
2019-05-17T02:50:12.816Z,97210.75
2019-05-17T02:52:46.270Z,97212.09
2019-05-17T02:55:19.304Z,97210.41
2019-05-17T02:57:52.958Z,97213.40
2019-05-17T03:00:25.827Z,97212.23
2019-05-17T03:02:58.063Z,97212.91
2019-05-17T03:05:33.760Z,97212.13
2019-05-17T03:08:05.327Z,97208.23
2019-05-17T03:10:39.065Z,97213.94
2019-05-17T03:13:12.795Z,97209.94
2019-05-17T03:15:46.389Z,97213.63
2019-05-17T03:18:22.596Z,97214.16
2019-05-17T03:20:52.912Z,97216.64
2019-05-17T03:23:25.130Z,97219.53
2019-05-17T03:25:57.759Z,97214.73
2019-05-17T03:28:33.752Z,97216.60
2019-05-17T03:31:07.605Z,97215.53
2019-05-17T03:33:44.653Z,97220.17
2019-05-17T03:36:16.681Z,97215.44
2019-05-17T03:38:48.039Z,97223.30
2019-05-17T03:41:27.858Z,97218.66
2019-05-17T03:43:54.658Z,97217.43
2019-05-17T03:46:27.516Z,97214.73
2019-05-17T03:49:03.510Z,97222.00
2019-05-17T03:51:34.218Z,97216.36
2019-05-17T03:54:08.164Z,97218.27
2019-05-17T03:56:42.759Z,97217.27
2019-05-17T03:59:15.059Z,97219.28
2019-05-17T04:01:47.342Z,97216.31
2019-05-17T04:04:22.671Z,97212.11
2019-05-17T04:06:54.184Z,97209.88
2019-05-17T04:09:27.715Z,97208.55
2019-05-17T04:12:02.910Z,97210.23
2019-05-17T04:14:34.247Z,97206.81
2019-05-17T04:17:06.649Z,97201.87
2019-05-17T04:19:38.929Z,97203.50
2019-05-17T04:22:13.880Z,97210.30
2019-05-17T04:24:45.916Z,97211.23
2019-05-17T04:27:18.293Z,97208.22
2019-05-17T04:29:53.297Z,97211.75
2019-05-17T04:32:24.799Z,97208.55
2019-05-17T04:34:57.537Z,97213.64
2019-05-17T04:37:33.348Z,97214.38
2019-05-17T04:40:04.165Z,97216.23
2019-05-17T04:42:36.405Z,97207.35
2019-05-17T04:45:12.469Z,97211.13
2019-05-17T04:47:44.809Z,97212.14
2019-05-17T04:50:17.387Z,97212.03
2019-05-17T04:52:53.332Z,97206.72
2019-05-17T04:55:24.090Z,97216.00
2019-05-17T04:57:56.876Z,97214.80
2019-05-17T05:00:29.793Z,97211.59
2019-05-17T05:03:04.070Z,97206.03
2019-05-17T05:05:36.788Z,97214.56
2019-05-17T05:08:12.775Z,97209.60
2019-05-17T05:10:43.830Z,97208.48
2019-05-17T05:13:16.283Z,97205.48
2019-05-17T05:15:48.579Z,97208.88
2019-05-17T05:18:22.150Z,97213.01
2019-05-17T05:20:54.963Z,97214.81
2019-05-17T05:23:29.098Z,97214.69
2019-05-17T05:26:03.131Z,97217.09
2019-05-17T05:28:35.677Z,97215.85
2019-05-17T05:31:08.113Z,97219.34
2019-05-17T05:33:41.926Z,97208.16
2019-05-17T05:36:14.950Z,97207.19
2019-05-17T05:38:48.380Z,97212.55
2019-05-17T05:41:22.559Z,97209.81
2019-05-17T05:43:55.739Z,97209.39
2019-05-17T05:46:31.647Z,97204.84
2019-05-17T05:49:03.630Z,97205.08
2019-05-17T05:51:36.018Z,97200.58
2019-05-17T05:54:08.407Z,97199.64
2019-05-17T05:56:42.206Z,97199.79
2019-05-17T05:59:14.645Z,97206.06
2019-05-17T06:01:47.732Z,97206.91
2019-05-17T06:04:22.286Z,97206.85
2019-05-17T06:06:54.713Z,97211.28
2019-05-17T06:09:27.009Z,97210.60
2019-05-17T06:11:59.637Z,97208.57
2019-05-17T06:14:32.346Z,97209.91
2019-05-17T06:17:04.722Z,97207.55
2019-05-17T06:19:37.465Z,97209.06
2019-05-17T06:22:11.977Z,97202.70
2019-05-17T06:24:44.926Z,97206.48
2019-05-17T06:27:17.222Z,97204.02
2019-05-17T06:29:51.457Z,97205.14
2019-05-17T06:32:23.936Z,97203.13
2019-05-17T06:34:57.039Z,97201.69
2019-05-17T06:37:31.641Z,97198.55
2019-05-17T06:40:03.390Z,97203.31
2019-05-17T06:42:41.139Z,97201.52
2019-05-17T06:45:12.459Z,97204.88
2019-05-17T06:47:45.079Z,97204.77
2019-05-17T06:50:17.685Z,97206.94
2019-05-17T06:52:53.140Z,97203.80
2019-05-17T06:55:25.239Z,97199.46
2019-05-17T06:57:57.518Z,97193.46
2019-05-17T07:00:30.314Z,97187.25
2019-05-17T07:03:02.702Z,97177.92
2019-05-17T07:05:37.086Z,97182.75
2019-05-17T07:08:10.902Z,97185.61
2019-05-17T07:10:43.249Z,97186.14
2019-05-17T07:13:15.864Z,97182.48
2019-05-17T07:15:50.869Z,97180.95
2019-05-17T07:18:23.077Z,97178.12
2019-05-17T07:20:55.382Z,97177.67
2019-05-17T07:23:30.239Z,97171.69
2019-05-17T07:26:03.107Z,97165.23
2019-05-17T07:28:35.900Z,97162.10
2019-05-17T07:31:10.151Z,97152.97
2019-05-17T07:33:42.514Z,97142.42
2019-05-17T07:36:14.796Z,97149.16
2019-05-17T07:38:47.092Z,97151.14
2019-05-17T07:41:20.413Z,97149.05
2019-05-17T07:43:53.229Z,97148.44
2019-05-17T07:46:25.977Z,97143.73
2019-05-17T07:49:00.459Z,97143.66
2019-05-17T07:51:32.505Z,97140.02
2019-05-17T07:54:04.794Z,97143.48
2019-05-17T07:56:37.085Z,97143.41
2019-05-17T07:59:09.822Z,97140.00
2019-05-17T08:01:42.599Z,97141.80
2019-05-17T08:04:15.291Z,97140.54
2019-05-17T08:06:50.467Z,97126.09
2019-05-17T08:09:22.069Z,97128.16
2019-05-17T08:11:54.814Z,97113.92
2019-05-17T08:14:30.365Z,97111.58
2019-05-17T08:17:01.807Z,97110.97
2019-05-17T08:19:34.555Z,97107.09
2019-05-17T08:22:09.627Z,97099.39
2019-05-17T08:24:42.323Z,97095.53
2019-05-17T08:27:15.628Z,97094.63
2019-05-17T08:29:49.900Z,97091.09
2019-05-17T08:32:21.899Z,97089.80
2019-05-17T08:34:54.183Z,97081.80
2019-05-17T08:37:26.480Z,97077.59
2019-05-17T08:40:00.101Z,97079.17
2019-05-17T08:42:32.722Z,97079.38
2019-05-17T08:45:05.117Z,97081.48
2019-05-17T08:47:39.670Z,97077.64
2019-05-17T08:50:12.661Z,97081.36
2019-05-17T08:52:44.945Z,97076.16
2019-05-17T08:55:20.284Z,97076.33
2019-05-17T08:57:51.645Z,97072.89
2019-05-17T09:00:24.223Z,97076.00
2019-05-17T09:02:56.988Z,97066.80
2019-05-17T09:05:30.295Z,97062.62
2019-05-17T09:08:02.709Z,97061.32
2019-05-17T09:10:35.101Z,97054.37
2019-05-17T09:13:10.566Z,97060.32
2019-05-17T09:15:41.752Z,97058.74
2019-05-17T09:18:14.035Z,97060.83
2019-05-17T09:20:46.658Z,97061.47
2019-05-17T09:23:19.726Z,97061.80
2019-05-17T09:25:52.576Z,97058.57
2019-05-17T09:28:25.190Z,97056.93
2019-05-17T09:30:59.870Z,97051.70
2019-05-17T09:33:32.893Z,97046.36
2019-05-17T09:36:06.201Z,97043.45
2019-05-17T09:38:40.482Z,97044.26
2019-05-17T09:41:13.233Z,97044.56
2019-05-17T09:43:45.519Z,97047.17
2019-05-17T09:46:19.665Z,97048.64
2019-05-17T09:48:52.161Z,97045.13
2019-05-17T09:51:25.355Z,97047.56
2019-05-17T09:54:00.122Z,97043.98
2019-05-17T09:56:33.151Z,97042.20
2019-05-17T09:59:05.812Z,97033.96
2019-05-17T10:01:39.444Z,97032.52
2019-05-17T10:04:13.509Z,97029.41
2019-05-17T10:06:45.799Z,97025.84
2019-05-17T10:09:19.675Z,97023.22
2019-05-17T10:11:52.264Z,97016.88
2019-05-17T10:14:28.168Z,97014.40
2019-05-17T10:17:00.314Z,97003.79
2019-05-17T10:19:32.359Z,97007.19
2019-05-17T10:22:04.851Z,96999.77
2019-05-17T10:24:39.615Z,97008.36
2019-05-17T10:27:14.494Z,96999.28
2019-05-17T10:29:45.615Z,96999.85
2019-05-17T10:32:20.529Z,96991.89
2019-05-17T10:34:52.277Z,97000.62
2019-05-17T10:37:24.557Z,97001.11
2019-05-17T10:39:57.891Z,96990.50
2019-05-17T10:42:30.724Z,96982.33
2019-05-17T10:45:03.826Z,96984.46
2019-05-17T10:47:36.325Z,96986.91
2019-05-17T10:50:11.159Z,96988.26
2019-05-17T10:52:44.318Z,96984.77
2019-05-17T10:55:17.236Z,96985.84
2019-05-17T10:57:50.574Z,96982.01
2019-05-17T11:00:23.912Z,96979.70
2019-05-17T11:02:57.117Z,96975.59
2019-05-17T11:05:30.853Z,96980.64
2019-05-17T11:08:03.601Z,96974.55
2019-05-17T11:10:36.350Z,96971.50
2019-05-17T11:13:08.637Z,96964.45
2019-05-17T11:15:40.905Z,96964.70
2019-05-17T11:18:13.188Z,96960.55
2019-05-17T11:20:45.533Z,96958.19
2019-05-17T11:23:18.313Z,96955.05
2019-05-17T11:25:51.040Z,96947.29
2019-05-17T11:28:23.451Z,96953.03
2019-05-17T11:30:55.883Z,96945.80
2019-05-17T11:33:29.088Z,96945.56
2019-05-17T11:36:01.490Z,96937.13
2019-05-17T11:38:34.114Z,96939.34
2019-05-17T11:41:20.534Z,96939.48
2019-05-17T11:43:41.883Z,96949.38
2019-05-17T11:46:14.598Z,96938.14
2019-05-17T11:48:46.990Z,96940.28
2019-05-17T11:51:19.278Z,96935.51
2019-05-17T11:53:52.585Z,96932.77
2019-05-17T11:56:24.878Z,96935.89
2019-05-17T11:58:58.842Z,96937.60
2019-05-17T12:01:31.466Z,96927.54
2019-05-17T12:04:03.748Z,96922.20
2019-05-17T12:06:36.479Z,96919.47
2019-05-17T12:09:09.713Z,96920.49
2019-05-17T12:11:42.458Z,96913.58
2019-05-17T12:14:14.745Z,96912.13
2019-05-17T12:16:47.127Z,96914.13
2019-05-17T12:19:19.569Z,96908.62
2019-05-17T12:21:51.858Z,96901.20
2019-05-17T12:24:24.163Z,96895.81
2019-05-17T12:26:56.399Z,96896.39
2019-05-17T12:29:28.741Z,96897.58
2019-05-17T12:32:01.123Z,96889.53
2019-05-17T12:34:33.416Z,96889.23
2019-05-17T12:37:05.784Z,96883.97
2019-05-17T12:39:38.185Z,96878.30
2019-05-17T12:42:10.854Z,96883.89
2019-05-17T12:44:43.562Z,96884.89
2019-05-17T12:47:16.507Z,96882.72
2019-05-17T12:49:48.806Z,96876.22
2019-05-17T12:52:21.884Z,96873.45
2019-05-17T12:54:55.088Z,96870.95
2019-05-17T12:57:27.826Z,96872.30
2019-05-17T13:00:00.133Z,96864.36
2019-05-17T13:02:32.880Z,96865.91
2019-05-17T13:05:06.298Z,96858.14
2019-05-17T13:07:40.411Z,96859.10
2019-05-17T13:10:13.466Z,96854.71
2019-05-17T13:12:45.846Z,96854.71
2019-05-17T13:15:18.545Z,96853.09
2019-05-17T13:17:51.167Z,96848.13
2019-05-17T13:20:23.851Z,96845.45
2019-05-17T13:22:56.130Z,96850.47
2019-05-17T13:25:29.042Z,96856.84
2019-05-17T13:28:01.326Z,96849.73
2019-05-17T13:30:34.512Z,96844.33
2019-05-17T13:33:07.233Z,96841.56
2019-05-17T13:35:39.541Z,96837.89
2019-05-17T13:38:12.145Z,96833.59
2019-05-17T13:40:44.442Z,96831.58
2019-05-17T13:43:16.741Z,96824.59
2019-05-17T13:45:49.575Z,96820.23
2019-05-17T13:48:23.229Z,96818.90
2019-05-17T13:50:55.717Z,96817.77
2019-05-17T13:53:28.890Z,96812.92
2019-05-17T13:56:01.271Z,96812.05
2019-05-17T13:58:34.128Z,96804.17
2019-05-17T14:01:06.520Z,96805.06
2019-05-17T14:03:38.821Z,96806.73
2019-05-17T14:06:11.895Z,96798.75
2019-05-17T14:08:45.191Z,96800.44
2019-05-17T14:11:17.477Z,96795.56
2019-05-17T14:13:49.863Z,96797.86
2019-05-17T14:16:23.200Z,96801.05
2019-05-17T14:18:56.211Z,96794.30
2019-05-17T14:21:29.866Z,96794.02
2019-05-17T14:24:03.344Z,96806.48
2019-05-17T14:26:36.223Z,96794.41
2019-05-17T14:29:09.036Z,96800.16
2019-05-17T14:31:41.333Z,96794.70
2019-05-17T14:34:14.073Z,96794.63
2019-05-17T14:36:46.695Z,96798.77
2019-05-17T14:39:20.362Z,96796.70
2019-05-17T14:41:52.640Z,96799.03
2019-05-17T14:44:24.896Z,96792.33
2019-05-17T14:46:57.650Z,96794.83
2019-05-17T14:49:30.230Z,96791.30
2019-05-17T14:52:03.430Z,96794.17
2019-05-17T14:54:35.676Z,96788.67
2019-05-17T14:57:08.313Z,96788.28
2019-05-17T14:59:40.604Z,96786.45
2019-05-17T15:02:13.006Z,96787.84
2019-05-17T15:04:45.395Z,96791.87
2019-05-17T15:07:17.698Z,96790.45
2019-05-17T15:09:50.336Z,96784.75
2019-05-17T15:12:28.196Z,96783.22
2019-05-17T15:14:57.333Z,96783.64
2019-05-17T15:17:29.631Z,96783.24
2019-05-17T15:20:03.417Z,96787.34
2019-05-17T15:22:36.166Z,96783.77
2019-05-17T15:25:08.671Z,96785.53
2019-05-17T15:27:41.062Z,96779.58
2019-05-17T15:30:13.783Z,96775.98
2019-05-17T15:32:46.599Z,96770.66
2019-05-17T15:35:19.347Z,96767.75
2019-05-17T15:37:51.644Z,96760.18
2019-05-17T15:40:23.933Z,96755.88
2019-05-17T15:42:56.564Z,96759.85
2019-05-17T15:45:28.854Z,96756.59
2019-05-17T15:48:02.270Z,96752.00
2019-05-17T15:50:35.142Z,96753.71
2019-05-17T15:53:08.312Z,96743.80
2019-05-17T15:55:41.567Z,96741.91
2019-05-17T15:58:13.953Z,96743.48
2019-05-17T16:00:46.252Z,96746.29
2019-05-17T16:03:18.646Z,96747.50
2019-05-17T16:05:51.707Z,96740.72
2019-05-17T16:08:24.328Z,96744.95
2019-05-17T16:10:56.620Z,96744.42
2019-05-17T16:13:29.379Z,96746.27
2019-05-17T16:16:02.306Z,96746.57
2019-05-17T16:18:35.271Z,96738.42
2019-05-17T16:21:08.129Z,96736.41
2019-05-17T16:23:40.890Z,96734.88
2019-05-17T16:26:13.329Z,96740.33
2019-05-17T16:28:46.206Z,96737.53
2019-05-17T16:31:18.634Z,96745.25
2019-05-17T16:33:51.258Z,96742.37
2019-05-17T16:36:23.553Z,96740.03
2019-05-17T16:38:56.169Z,96738.10
2019-05-17T16:41:29.266Z,96736.24
2019-05-17T16:44:02.007Z,96738.71
2019-05-17T16:46:35.858Z,96738.20
2019-05-17T16:49:08.451Z,96741.28
2019-05-17T16:51:41.848Z,96735.58
2019-05-17T16:54:15.024Z,96738.84
2019-05-17T16:56:47.298Z,96733.98
2019-05-17T16:59:20.159Z,96736.64
2019-05-17T17:01:53.366Z,96732.95
2019-05-17T17:04:27.277Z,96731.94
2019-05-17T17:07:00.167Z,96738.66
2019-05-17T17:09:32.831Z,96736.19
2019-05-17T17:12:06.658Z,96742.41
2019-05-17T17:14:39.283Z,96740.42
2019-05-17T17:17:13.054Z,96743.75
2019-05-17T17:19:45.501Z,96743.28
2019-05-17T17:22:17.766Z,96738.27
2019-05-17T17:24:50.062Z,96740.66
2019-05-17T17:27:22.365Z,96743.98
2019-05-17T17:29:55.350Z,96741.98
2019-05-17T17:32:27.642Z,96734.59
2019-05-17T17:34:59.922Z,96735.31
2019-05-17T17:37:32.306Z,96734.80
2019-05-17T17:40:05.216Z,96735.19
2019-05-17T17:42:38.085Z,96739.31
2019-05-17T17:45:17.584Z,96736.61
2019-05-17T17:47:50.083Z,96736.67
2019-05-17T17:50:23.392Z,96735.14
2019-05-17T17:52:57.355Z,96734.58
2019-05-17T17:55:30.114Z,96740.50
2019-05-17T17:58:02.389Z,96739.00
2019-05-17T18:00:34.785Z,96735.11
2019-05-17T18:03:07.186Z,96733.59
2019-05-17T18:05:39.482Z,96732.55
2019-05-17T18:08:12.109Z,96740.74
2019-05-17T18:10:46.651Z,96745.05
2019-05-17T18:13:19.713Z,96743.84
2019-05-17T18:15:52.602Z,96740.05
2019-05-17T18:18:25.040Z,96741.90
2019-05-17T18:20:57.911Z,96741.81
2019-05-17T18:23:32.126Z,96741.89
2019-05-17T18:26:05.307Z,96741.95
2019-05-17T18:28:38.028Z,96740.11
2019-05-17T18:31:13.763Z,96745.02
2019-05-17T18:33:46.900Z,96748.32
2019-05-17T18:36:19.635Z,96746.77
2019-05-17T18:38:55.527Z,96757.19
2019-05-17T18:41:29.869Z,96750.73
2019-05-17T18:44:02.841Z,96753.69
2019-05-17T18:46:35.660Z,96755.34
2019-05-17T18:49:08.870Z,96760.08
2019-05-17T18:51:41.164Z,96763.04
2019-05-17T18:54:15.663Z,96760.18
2019-05-17T18:56:48.156Z,96766.39
2019-05-17T18:59:21.226Z,96775.17
2019-05-17T19:01:53.512Z,96777.63
2019-05-17T19:04:26.689Z,96781.53
2019-05-17T19:06:58.981Z,96784.33
2019-05-17T19:09:33.304Z,96787.41
2019-05-17T19:12:06.463Z,96789.22
2019-05-17T19:14:42.880Z,96791.97
2019-05-17T19:17:14.919Z,96786.82
2019-05-17T19:19:47.660Z,96785.40
2019-05-17T19:22:19.968Z,96793.52
2019-05-17T19:24:52.276Z,96793.71
2019-05-17T19:27:24.690Z,96791.30
2019-05-17T19:29:57.622Z,96800.84
2019-05-17T19:32:30.713Z,96803.27
2019-05-17T19:35:03.792Z,96805.54
2019-05-17T19:37:36.644Z,96806.50
2019-05-17T19:40:09.711Z,96806.20
2019-05-17T19:42:42.020Z,96812.86
2019-05-17T19:45:18.148Z,96819.33
2019-05-17T19:47:50.982Z,96822.26
2019-05-17T19:50:36.365Z,96820.80
2019-05-17T19:53:10.852Z,96824.03
2019-05-17T19:55:44.066Z,96831.77
2019-05-17T19:58:19.731Z,96832.74
2019-05-17T20:00:55.033Z,96835.09
2019-05-17T20:03:31.075Z,96838.31
2019-05-17T20:06:07.266Z,96830.72
2019-05-17T20:08:42.006Z,96837.33
2019-05-17T20:11:16.933Z,96831.50
2019-05-17T20:13:52.403Z,96831.33
2019-05-17T20:16:26.287Z,96833.06
2019-05-17T20:18:59.262Z,96833.88
2019-05-17T20:21:32.081Z,96834.66
2019-05-17T20:24:05.404Z,96837.23
2019-05-17T20:26:38.022Z,96832.06
2019-05-17T20:29:11.144Z,96836.03
2019-05-17T20:31:44.416Z,96835.39
2019-05-17T20:34:16.703Z,96832.31
2019-05-17T20:36:49.904Z,96838.44
2019-05-17T20:39:22.206Z,96835.86
2019-05-17T20:41:57.335Z,96835.37
2019-05-17T20:44:28.413Z,96832.81
2019-05-17T20:47:01.615Z,96831.69
2019-05-17T20:49:34.693Z,96832.63
2019-05-17T20:52:07.079Z,96827.16
2019-05-17T20:54:39.707Z,96825.37
2019-05-17T20:57:12.896Z,96830.68
2019-05-17T20:59:45.179Z,96824.52
2019-05-17T21:02:18.721Z,96822.39
2019-05-17T21:04:51.013Z,96824.30
2019-05-17T21:07:23.298Z,96821.25
2019-05-17T21:09:55.589Z,96818.98
2019-05-17T21:12:27.890Z,96820.59
2019-05-17T21:15:01.100Z,96819.72
2019-05-17T21:17:33.379Z,96814.05
2019-05-17T21:20:06.869Z,96813.35
2019-05-17T21:22:39.827Z,96817.69
2019-05-17T21:25:12.597Z,96818.48
2019-05-17T21:27:45.214Z,96818.47
2019-05-17T21:30:18.861Z,96817.31
2019-05-17T21:32:51.582Z,96819.21
2019-05-17T21:35:23.881Z,96813.72
2019-05-17T21:37:56.868Z,96820.14
2019-05-17T21:40:29.179Z,96824.82
2019-05-17T21:43:01.476Z,96822.39
2019-05-17T21:45:34.110Z,96821.88
2019-05-17T21:48:06.839Z,96827.53
2019-05-17T21:50:39.469Z,96826.73
2019-05-17T21:53:11.790Z,96824.30
2019-05-17T21:55:44.530Z,96829.28
2019-05-17T21:58:20.322Z,96826.69
2019-05-17T22:01:27.609Z,96827.45
2019-05-17T22:03:59.897Z,96824.02
2019-05-17T22:06:32.236Z,96827.07
2019-05-17T22:09:05.522Z,96827.38
2019-05-17T22:11:40.137Z,96830.72
2019-05-17T22:14:13.222Z,96830.19
2019-05-17T22:16:46.626Z,96831.30
2019-05-17T22:19:19.252Z,96830.48
2019-05-17T22:21:52.214Z,96829.32
2019-05-17T22:24:24.537Z,96831.08
2019-05-17T22:26:57.861Z,96832.99
2019-05-17T22:29:30.150Z,96839.73
2019-05-17T22:32:03.024Z,96836.63
2019-05-17T22:34:35.646Z,96831.45
2019-05-17T22:37:08.428Z,96829.02
2019-05-17T22:39:40.720Z,96826.41
2019-05-17T22:42:13.023Z,96828.77
2019-05-17T22:44:46.097Z,96827.59
2019-05-17T22:47:18.397Z,96827.17
2019-05-17T22:49:50.682Z,96828.31
2019-05-17T22:52:23.309Z,96824.64
2019-05-17T22:54:56.056Z,96823.06
2019-05-17T22:57:28.564Z,96824.19
2019-05-17T23:00:00.857Z,96828.39
2019-05-17T23:02:33.714Z,96824.13
2019-05-17T23:05:07.244Z,96819.06
2019-05-17T23:07:39.983Z,96818.38
2019-05-17T23:10:13.518Z,96815.50
2019-05-17T23:12:45.906Z,96814.59
2019-05-17T23:15:19.303Z,96816.27
2019-05-17T23:17:51.924Z,96814.73
2019-05-17T23:20:24.649Z,96816.80
2019-05-17T23:22:56.950Z,96816.30
2019-05-17T23:25:29.727Z,96813.70
2019-05-17T23:28:02.023Z,96817.05
2019-05-17T23:30:34.313Z,96813.72
2019-05-17T23:33:06.607Z,96807.49
2019-05-17T23:35:39.699Z,96809.08
2019-05-17T23:38:11.987Z,96811.27
2019-05-17T23:40:44.274Z,96805.73
2019-05-17T23:43:16.554Z,96813.08
2019-05-17T23:45:48.842Z,96805.80
2019-05-17T23:48:21.793Z,96798.16
2019-05-17T23:50:54.530Z,96807.13
2019-05-17T23:53:28.816Z,96801.48
2019-05-17T23:56:01.064Z,96804.20
2019-05-17T23:58:33.355Z,96813.80
